createdAt,value
2023-05-08T00:01:02.669Z,10.05
2023-05-08T00:03:29.718Z,10.05
2023-05-08T00:05:56.809Z,10.05
2023-05-08T00:08:23.776Z,10.06
2023-05-08T00:10:50.664Z,10.06
2023-05-08T00:13:17.712Z,10.05
2023-05-08T00:15:44.590Z,10.06
2023-05-08T00:18:11.865Z,10.07
2023-05-08T00:20:38.798Z,10.06
2023-05-08T00:23:05.635Z,10.06
2023-05-08T00:25:32.499Z,10.05
2023-05-08T00:28:00.137Z,10.05
2023-05-08T00:30:27.296Z,10.05
2023-05-08T00:32:54.417Z,10.04
2023-05-08T00:35:21.916Z,10.04
2023-05-08T00:37:48.773Z,10.05
2023-05-08T00:40:16.204Z,10.04
2023-05-08T00:42:43.303Z,10.04
2023-05-08T00:45:10.547Z,10.03
2023-05-08T00:47:38.243Z,10.03
2023-05-08T00:50:05.591Z,10.03
2023-05-08T00:52:33.437Z,10.03
2023-05-08T00:55:02.319Z,10.03
2023-05-08T00:57:32.473Z,10.04
2023-05-08T01:00:01.768Z,10.05
2023-05-08T01:02:31.648Z,10.05
2023-05-08T01:04:59.133Z,10.04
2023-05-08T01:07:26.163Z,10.05
2023-05-08T01:09:53.244Z,10.06
2023-05-08T01:12:43.519Z,10.04
2023-05-08T01:15:24.012Z,10.03
2023-05-08T01:17:57.994Z,10.05
2023-05-08T01:20:27.826Z,10.04
2023-05-08T01:23:06.922Z,10.04
2023-05-08T01:25:55.096Z,10.05
2023-05-08T01:29:06.455Z,10.05
2023-05-08T01:31:44.950Z,10.04
2023-05-08T01:34:20.105Z,10.06
2023-05-08T01:37:00.804Z,10.04
2023-05-08T01:39:30.520Z,10.03
2023-05-08T01:41:58.917Z,10.03
2023-05-08T01:44:32.289Z,10.03
2023-05-08T01:47:03.824Z,10.03
2023-05-08T01:49:38.776Z,10.01
2023-05-08T01:52:35.514Z,10.04
2023-05-08T01:55:06.057Z,10.04
2023-05-08T01:57:36.068Z,10.03
2023-05-08T02:00:04.862Z,10.03
2023-05-08T02:02:38.302Z,10.04
2023-05-08T02:05:07.544Z,10.01
2023-05-08T02:07:38.200Z,10.03
2023-05-08T02:10:06.521Z,10.01
2023-05-08T02:12:34.351Z,10.01
2023-05-08T02:15:03.276Z,10.03
2023-05-08T02:17:31.456Z,10.03
2023-05-08T02:20:03.490Z,10.01
2023-05-08T02:22:32.861Z,10.01
2023-05-08T02:25:00.313Z,10.03
2023-05-08T02:27:29.431Z,10.01
2023-05-08T02:29:57.417Z,10.01
2023-05-08T02:32:27.092Z,10.00
2023-05-08T02:35:03.060Z,10.01
2023-05-08T02:37:32.598Z,10.01
2023-05-08T02:39:59.806Z,10.00
2023-05-08T02:42:26.962Z,10.00
2023-05-08T02:44:53.970Z,9.99
2023-05-08T02:48:00.254Z,9.99
2023-05-08T02:50:37.648Z,10.00
2023-05-08T02:53:09.639Z,9.98
2023-05-08T02:56:02.601Z,9.99
2023-05-08T02:58:43.842Z,9.99
2023-05-08T03:01:27.601Z,10.00
2023-05-08T03:04:07.840Z,9.98
2023-05-08T03:06:42.974Z,9.98
2023-05-08T03:09:20.773Z,9.97
2023-05-08T03:11:50.197Z,9.98
2023-05-08T03:14:22.750Z,9.98
2023-05-08T03:16:52.381Z,9.98
2023-05-08T03:19:39.374Z,9.97
2023-05-08T03:22:08.018Z,9.98
2023-05-08T03:24:40.093Z,9.98
2023-05-08T03:27:08.658Z,9.97
2023-05-08T03:29:38.480Z,9.95
2023-05-08T03:32:07.056Z,9.94
2023-05-08T03:34:36.209Z,9.93
2023-05-08T03:37:03.670Z,9.93
2023-05-08T03:39:30.587Z,9.94
2023-05-08T03:41:58.095Z,9.94
2023-05-08T03:44:26.133Z,9.95
2023-05-08T03:46:56.046Z,9.95
2023-05-08T03:49:25.608Z,9.95
2023-05-08T03:51:55.641Z,9.97
2023-05-08T03:54:25.504Z,9.97
2023-05-08T03:56:54.489Z,9.96
2023-05-08T03:59:33.243Z,9.96
2023-05-08T04:02:17.514Z,9.97
2023-05-08T04:04:50.161Z,9.96
2023-05-08T04:07:29.564Z,9.96
2023-05-08T04:10:28.978Z,9.95
2023-05-08T04:13:05.133Z,9.96
2023-05-08T04:15:39.388Z,9.96
2023-05-08T04:18:10.137Z,9.95
2023-05-08T04:20:41.650Z,9.96
2023-05-08T04:23:09.955Z,9.95
2023-05-08T04:25:39.009Z,9.99
2023-05-08T04:28:06.626Z,9.96
2023-05-08T04:30:35.556Z,9.96
2023-05-08T04:33:05.080Z,9.99
2023-05-08T04:35:33.980Z,9.96
2023-05-08T04:38:02.054Z,9.97
2023-05-08T04:40:28.973Z,9.98
2023-05-08T04:42:56.797Z,9.98
2023-05-08T04:45:24.192Z,9.99
2023-05-08T04:47:51.264Z,9.98
2023-05-08T04:50:18.138Z,9.98
2023-05-08T04:52:45.072Z,9.97
2023-05-08T04:55:12.128Z,9.94
2023-05-08T04:57:39.585Z,9.97
2023-05-08T05:00:07.173Z,9.95
2023-05-08T05:02:38.321Z,9.96
2023-05-08T05:05:06.459Z,9.98
2023-05-08T05:07:34.004Z,9.97
2023-05-08T05:10:01.271Z,9.98
2023-05-08T05:12:28.778Z,9.98
2023-05-08T05:14:55.885Z,9.97
2023-05-08T05:17:23.774Z,9.99
2023-05-08T05:19:53.334Z,9.98
2023-05-08T05:22:20.545Z,10.00
2023-05-08T05:24:47.523Z,9.99
2023-05-08T05:27:14.454Z,9.98
2023-05-08T05:29:41.489Z,9.98
2023-05-08T05:32:10.233Z,10.01
2023-05-08T05:34:37.704Z,9.99
2023-05-08T05:37:04.983Z,10.03
2023-05-08T05:39:32.444Z,10.03
2023-05-08T05:41:59.442Z,10.01
2023-05-08T05:44:26.325Z,10.06
2023-05-08T05:46:54.703Z,10.04
2023-05-08T05:49:21.682Z,10.01
2023-05-08T05:51:48.588Z,10.01
2023-05-08T05:54:16.664Z,10.03
2023-05-08T05:56:44.425Z,10.04
2023-05-08T05:59:11.579Z,10.05
2023-05-08T06:01:39.410Z,10.05
2023-05-08T06:04:06.693Z,10.05
2023-05-08T06:06:33.670Z,10.04
2023-05-08T06:09:00.748Z,10.04
2023-05-08T06:11:27.634Z,10.04
2023-05-08T06:13:54.806Z,10.05
2023-05-08T06:16:23.207Z,10.07
2023-05-08T06:18:50.629Z,10.06
2023-05-08T06:21:17.493Z,10.08
2023-05-08T06:23:44.539Z,10.07
2023-05-08T06:26:11.409Z,10.07
2023-05-08T06:28:38.502Z,10.08
2023-05-08T06:31:05.391Z,10.11
2023-05-08T06:33:32.327Z,10.10
2023-05-08T06:35:59.472Z,10.10
2023-05-08T06:38:26.667Z,10.11
2023-05-08T06:40:54.098Z,10.11
2023-05-08T06:43:21.737Z,10.11
2023-05-08T06:45:48.643Z,10.12
2023-05-08T06:48:15.509Z,10.13
2023-05-08T06:50:43.323Z,10.13
2023-05-08T06:53:10.303Z,10.14
2023-05-08T06:55:37.105Z,10.16
2023-05-08T06:58:04.205Z,10.16
2023-05-08T07:00:31.175Z,10.18
2023-05-08T07:02:58.084Z,10.19
2023-05-08T07:05:24.993Z,10.20
2023-05-08T07:07:54.188Z,10.21
2023-05-08T07:10:22.977Z,10.34
2023-05-08T07:12:50.111Z,10.28
2023-05-08T07:15:25.349Z,10.26
2023-05-08T07:17:53.514Z,10.22
2023-05-08T07:20:21.595Z,10.24
2023-05-08T07:22:48.923Z,10.26
2023-05-08T07:25:16.305Z,10.28
2023-05-08T07:27:43.587Z,10.28
2023-05-08T07:30:10.812Z,10.28
2023-05-08T07:32:39.401Z,10.29
2023-05-08T07:35:11.023Z,10.27
2023-05-08T07:37:40.817Z,10.28
2023-05-08T07:40:07.993Z,10.30
2023-05-08T07:42:45.195Z,10.29
2023-05-08T07:45:13.686Z,10.30
2023-05-08T07:47:52.529Z,10.31
2023-05-08T07:50:19.598Z,10.33
2023-05-08T07:52:49.210Z,10.33
2023-05-08T07:55:18.145Z,10.36
2023-05-08T07:57:45.126Z,10.37
2023-05-08T08:00:14.248Z,10.39
2023-05-08T08:02:42.307Z,10.36
2023-05-08T08:05:09.655Z,10.38
2023-05-08T08:07:36.504Z,10.40
2023-05-08T08:10:04.679Z,10.40
2023-05-08T08:12:32.091Z,10.42
2023-05-08T08:14:59.113Z,10.42
2023-05-08T08:17:28.437Z,10.44
2023-05-08T08:19:56.603Z,10.45
2023-05-08T08:22:24.871Z,10.48
2023-05-08T08:24:54.905Z,10.48
2023-05-08T08:27:22.736Z,10.48
2023-05-08T08:29:52.611Z,10.50
2023-05-08T08:32:25.687Z,10.50
2023-05-08T08:34:52.567Z,10.50
2023-05-08T08:37:19.505Z,10.51
2023-05-08T08:39:46.346Z,10.51
2023-05-08T08:42:14.044Z,10.53
2023-05-08T08:44:41.766Z,10.54
2023-05-08T08:47:12.006Z,10.54
2023-05-08T08:49:47.355Z,10.54
2023-05-08T08:52:52.058Z,10.54
2023-05-08T08:55:20.759Z,10.55
2023-05-08T08:58:01.576Z,10.54
2023-05-08T09:00:34.155Z,10.55
2023-05-08T09:03:01.504Z,10.57
2023-05-08T09:05:28.607Z,10.54
2023-05-08T09:07:56.120Z,10.55
2023-05-08T09:10:24.545Z,10.54
2023-05-08T09:12:52.070Z,10.53
2023-05-08T09:15:18.975Z,10.54
2023-05-08T09:17:45.986Z,10.54
2023-05-08T09:20:14.863Z,10.54
2023-05-08T09:22:43.567Z,10.53
2023-05-08T09:25:11.031Z,10.54
2023-05-08T09:27:38.490Z,10.54
2023-05-08T09:30:06.581Z,10.53
2023-05-08T09:32:35.719Z,10.53
2023-05-08T09:35:03.564Z,10.52
2023-05-08T09:37:30.764Z,10.54
2023-05-08T09:40:13.512Z,10.53
2023-05-08T09:42:40.792Z,10.54
2023-05-08T09:45:08.195Z,10.54
2023-05-08T09:47:37.463Z,10.54
2023-05-08T09:50:09.868Z,10.55
2023-05-08T09:52:38.358Z,10.53
2023-05-08T09:55:10.499Z,10.53
2023-05-08T09:57:39.695Z,10.57
2023-05-08T10:00:13.926Z,10.55
2023-05-08T10:02:42.810Z,10.57
2023-05-08T10:05:34.845Z,10.56
2023-05-08T10:08:22.666Z,10.56
2023-05-08T10:10:50.165Z,10.56
2023-05-08T10:13:17.020Z,10.57
2023-05-08T10:15:45.580Z,10.56
2023-05-08T10:18:13.422Z,10.57
2023-05-08T10:20:42.490Z,10.59
2023-05-08T10:23:14.809Z,10.59
2023-05-08T10:25:46.670Z,10.60
2023-05-08T10:28:32.804Z,10.63
2023-05-08T10:31:01.537Z,10.59
2023-05-08T10:33:31.814Z,10.59
2023-05-08T10:35:59.940Z,10.59
2023-05-08T10:38:27.603Z,10.62
2023-05-08T10:40:58.162Z,10.62
2023-05-08T10:43:26.408Z,10.62
2023-05-08T10:45:55.577Z,10.62
2023-05-08T10:48:37.288Z,10.63
2023-05-08T10:51:13.859Z,10.63
2023-05-08T10:53:44.477Z,10.63
2023-05-08T10:56:11.540Z,10.63
2023-05-08T10:58:41.660Z,10.62
2023-05-08T11:01:08.719Z,10.62
2023-05-08T11:03:47.163Z,10.63
2023-05-08T11:06:15.147Z,10.63
2023-05-08T11:08:54.681Z,10.62
2023-05-08T11:11:28.481Z,10.63
2023-05-08T11:14:10.448Z,10.63
2023-05-08T11:16:57.107Z,10.63
2023-05-08T11:19:25.223Z,10.64
2023-05-08T11:22:11.168Z,10.63
2023-05-08T11:24:39.525Z,10.63
2023-05-08T11:27:06.406Z,10.63
2023-05-08T11:29:34.296Z,10.63
2023-05-08T11:32:01.417Z,10.65
2023-05-08T11:34:43.781Z,10.66
2023-05-08T11:37:16.778Z,10.64
2023-05-08T11:39:43.711Z,10.63
2023-05-08T11:42:25.411Z,10.66
2023-05-08T11:45:03.666Z,10.65
2023-05-08T11:47:42.005Z,10.64
2023-05-08T11:50:10.724Z,10.63
2023-05-08T11:52:39.818Z,10.64
2023-05-08T11:55:09.013Z,10.62
2023-05-08T11:57:35.864Z,10.64
2023-05-08T12:00:06.530Z,10.64
2023-05-08T12:02:42.568Z,10.65
2023-05-08T12:05:11.010Z,10.67
2023-05-08T12:07:48.158Z,10.67
2023-05-08T12:10:16.690Z,10.66
2023-05-08T12:12:45.274Z,10.67
2023-05-08T12:15:15.237Z,10.70
2023-05-08T12:17:42.958Z,10.68
2023-05-08T12:20:18.025Z,10.68
2023-05-08T12:22:53.204Z,10.69
2023-05-08T12:25:20.769Z,10.70
2023-05-08T12:27:48.102Z,10.73
2023-05-08T12:30:16.247Z,10.72
2023-05-08T12:32:44.070Z,10.71
2023-05-08T12:35:12.520Z,10.71
2023-05-08T12:37:40.006Z,10.71
2023-05-08T12:40:08.088Z,10.72
2023-05-08T12:42:49.858Z,10.73
2023-05-08T12:45:46.828Z,10.73
2023-05-08T12:48:18.534Z,10.73
2023-05-08T12:50:46.428Z,10.74
2023-05-08T12:53:18.110Z,10.74
2023-05-08T12:55:53.148Z,10.74
2023-05-08T12:58:24.046Z,10.73
2023-05-08T13:00:52.392Z,10.73
2023-05-08T13:03:27.224Z,10.73
2023-05-08T13:05:56.112Z,10.74
2023-05-08T13:08:37.114Z,10.75
2023-05-08T13:11:07.848Z,10.77
2023-05-08T13:13:36.607Z,10.75
2023-05-08T13:16:05.774Z,10.74
2023-05-08T13:18:33.500Z,10.77
2023-05-08T13:21:02.254Z,10.79
2023-05-08T13:23:29.311Z,10.78
2023-05-08T13:25:56.662Z,10.81
2023-05-08T13:28:23.605Z,10.81
2023-05-08T13:30:50.440Z,10.82
2023-05-08T13:33:17.349Z,10.84
2023-05-08T13:35:44.149Z,10.86
2023-05-08T13:38:11.253Z,10.85
2023-05-08T13:40:38.051Z,10.85
2023-05-08T13:43:04.973Z,10.88
2023-05-08T13:45:33.036Z,10.89
2023-05-08T13:48:00.095Z,10.90
2023-05-08T13:50:26.958Z,10.90
2023-05-08T13:52:55.196Z,10.90
2023-05-08T13:55:23.307Z,10.93
2023-05-08T13:57:51.074Z,10.95
2023-05-08T14:00:18.611Z,10.96
2023-05-08T14:02:46.058Z,10.96
2023-05-08T14:05:13.673Z,10.96
2023-05-08T14:07:41.039Z,11.01
2023-05-08T14:10:08.284Z,10.99
2023-05-08T14:12:36.412Z,11.01
2023-05-08T14:15:05.113Z,11.03
2023-05-08T14:17:32.504Z,11.05
2023-05-08T14:19:59.802Z,11.08
2023-05-08T14:22:26.671Z,11.10
2023-05-08T14:24:53.543Z,11.11
2023-05-08T14:27:20.723Z,11.12
2023-05-08T14:29:47.770Z,11.13
2023-05-08T14:32:14.640Z,11.14
2023-05-08T14:34:41.562Z,11.16
2023-05-08T14:37:08.560Z,11.20
2023-05-08T14:39:35.504Z,11.23
2023-05-08T14:42:18.322Z,11.24
2023-05-08T14:44:49.648Z,11.25
2023-05-08T14:47:16.635Z,11.26
2023-05-08T14:49:43.544Z,11.27
2023-05-08T14:52:10.455Z,11.27
2023-05-08T14:54:37.582Z,11.28
2023-05-08T14:57:04.950Z,11.28
2023-05-08T14:59:31.789Z,11.27
2023-05-08T15:01:58.850Z,11.27
2023-05-08T15:04:25.800Z,11.28
2023-05-08T15:06:52.629Z,11.28
2023-05-08T15:09:19.591Z,11.29
2023-05-08T15:11:46.434Z,11.29
2023-05-08T15:14:13.281Z,11.31
2023-05-08T15:16:40.144Z,11.31
2023-05-08T15:19:09.370Z,11.32
2023-05-08T15:21:36.456Z,11.33
2023-05-08T15:24:03.428Z,11.33
2023-05-08T15:26:30.178Z,11.34
2023-05-08T15:28:57.193Z,11.36
2023-05-08T15:31:24.126Z,11.38
2023-05-08T15:33:52.643Z,11.38
2023-05-08T15:36:19.560Z,11.40
2023-05-08T15:38:49.129Z,11.42
2023-05-08T15:41:16.006Z,11.44
2023-05-08T15:43:45.324Z,11.43
2023-05-08T15:46:12.304Z,11.44
2023-05-08T15:48:39.517Z,11.46
2023-05-08T15:51:06.610Z,11.48
2023-05-08T15:53:34.361Z,11.46
2023-05-08T15:56:01.332Z,11.47
2023-05-08T15:58:28.446Z,11.48
2023-05-08T16:00:56.178Z,11.46
2023-05-08T16:03:23.609Z,11.46
2023-05-08T16:05:50.712Z,11.47
2023-05-08T16:08:17.512Z,11.48
2023-05-08T16:10:44.368Z,11.47
2023-05-08T16:13:11.490Z,11.51
2023-05-08T16:15:38.531Z,11.51
2023-05-08T16:18:06.277Z,11.49
2023-05-08T16:20:35.603Z,11.52
2023-05-08T16:23:02.984Z,11.53
2023-05-08T16:25:29.781Z,11.54
2023-05-08T16:27:56.867Z,11.54
2023-05-08T16:30:23.708Z,11.86
2023-05-08T16:32:50.826Z,11.79
2023-05-08T16:35:18.201Z,11.74
2023-05-08T16:37:45.502Z,11.69
2023-05-08T16:40:12.609Z,11.68
2023-05-08T16:42:39.516Z,11.68
2023-05-08T16:45:07.485Z,11.67
2023-05-08T16:47:34.746Z,11.69
2023-05-08T16:50:01.906Z,11.70
2023-05-08T16:52:29.014Z,11.70
2023-05-08T16:54:55.766Z,11.69
2023-05-08T16:57:22.735Z,11.72
2023-05-08T16:59:49.722Z,11.74
2023-05-08T17:02:19.551Z,11.76
2023-05-08T17:04:47.934Z,11.75
2023-05-08T17:07:15.878Z,11.76
2023-05-08T17:09:43.067Z,11.77
2023-05-08T17:12:10.300Z,11.79
2023-05-08T17:14:39.469Z,11.79
2023-05-08T17:17:06.963Z,11.78
2023-05-08T17:19:34.375Z,11.76
2023-05-08T17:22:01.395Z,11.74
2023-05-08T17:24:30.552Z,11.72
2023-05-08T17:26:57.505Z,11.71
2023-05-08T17:29:24.662Z,11.70
2023-05-08T17:31:51.677Z,11.69
2023-05-08T17:34:18.759Z,11.70
2023-05-08T17:36:45.653Z,11.70
2023-05-08T17:39:12.831Z,11.71
2023-05-08T17:41:39.754Z,11.70
2023-05-08T17:44:07.227Z,11.69
2023-05-08T17:46:34.261Z,11.69
2023-05-08T17:49:01.480Z,11.69
2023-05-08T17:51:28.249Z,11.70
2023-05-08T17:53:56.666Z,11.72
2023-05-08T17:56:23.936Z,11.72
2023-05-08T17:58:52.464Z,11.69
2023-05-08T18:01:20.319Z,11.68
2023-05-08T18:03:48.489Z,11.68
2023-05-08T18:06:18.769Z,11.70
2023-05-08T18:08:46.642Z,11.69
2023-05-08T18:11:21.574Z,11.70
2023-05-08T18:13:49.293Z,11.69
2023-05-08T18:16:18.323Z,11.67
2023-05-08T18:18:45.608Z,11.66
2023-05-08T18:21:12.536Z,11.66
2023-05-08T18:23:39.416Z,11.64
2023-05-08T18:26:06.535Z,11.61
2023-05-08T18:28:36.031Z,11.64
2023-05-08T18:31:03.269Z,11.61
2023-05-08T18:33:30.405Z,11.61
2023-05-08T18:35:57.332Z,11.60
2023-05-08T18:38:24.275Z,11.59
2023-05-08T18:40:51.237Z,11.61
2023-05-08T18:43:18.145Z,11.60
2023-05-08T18:45:45.013Z,11.60
2023-05-08T18:48:12.048Z,11.59
2023-05-08T18:50:38.925Z,11.59
2023-05-08T18:53:06.529Z,11.59
2023-05-08T18:55:33.448Z,11.59
2023-05-08T18:58:00.470Z,11.60
2023-05-08T19:00:27.457Z,11.60
2023-05-08T19:02:54.562Z,11.61
2023-05-08T19:05:21.514Z,11.61
2023-05-08T19:07:48.414Z,11.61
2023-05-08T19:10:15.845Z,11.60
2023-05-08T19:12:43.772Z,11.62
2023-05-08T19:15:13.932Z,11.62
2023-05-08T19:17:43.000Z,11.61
2023-05-08T19:20:10.444Z,11.63
2023-05-08T19:22:37.397Z,11.62
2023-05-08T19:25:04.607Z,11.62
2023-05-08T19:27:32.208Z,11.60
2023-05-08T19:29:59.232Z,11.62
2023-05-08T19:32:26.310Z,11.59
2023-05-08T19:34:53.642Z,11.60
2023-05-08T19:37:20.649Z,11.60
2023-05-08T19:39:47.462Z,11.58
2023-05-08T19:42:14.448Z,11.58
2023-05-08T19:44:41.400Z,11.56
2023-05-08T19:47:08.499Z,11.58
2023-05-08T19:49:35.307Z,11.57
2023-05-08T19:52:02.303Z,11.58
2023-05-08T19:54:30.401Z,11.58
2023-05-08T19:56:57.955Z,11.57
2023-05-08T19:59:24.744Z,11.57
2023-05-08T20:01:51.765Z,11.58
2023-05-08T20:04:18.529Z,11.58
2023-05-08T20:06:45.558Z,11.58
2023-05-08T20:09:12.524Z,11.57
2023-05-08T20:11:39.555Z,11.57
2023-05-08T20:14:06.369Z,11.57
2023-05-08T20:16:33.424Z,11.57
2023-05-08T20:19:02.119Z,11.58
2023-05-08T20:21:33.956Z,11.58
2023-05-08T20:24:01.203Z,11.58
2023-05-08T20:26:29.453Z,11.58
2023-05-08T20:28:57.369Z,11.59
2023-05-08T20:31:27.609Z,11.60
2023-05-08T20:33:55.366Z,11.61
2023-05-08T20:36:22.422Z,11.64
2023-05-08T20:38:49.231Z,11.66
2023-05-08T20:41:16.135Z,11.66
2023-05-08T20:43:43.737Z,11.68
2023-05-08T20:46:10.562Z,11.67
2023-05-08T20:48:38.641Z,11.69
2023-05-08T20:51:05.614Z,11.70
2023-05-08T20:53:32.866Z,11.71
2023-05-08T20:56:03.967Z,11.72
2023-05-08T20:58:31.384Z,11.72
2023-05-08T21:00:58.262Z,11.73
2023-05-08T21:03:25.371Z,11.74
2023-05-08T21:05:52.234Z,11.73
2023-05-08T21:08:23.665Z,11.73
2023-05-08T21:10:51.882Z,11.75
2023-05-08T21:13:19.231Z,11.74
2023-05-08T21:15:50.377Z,11.81
2023-05-08T21:18:18.127Z,11.92
2023-05-08T21:20:49.851Z,11.99
2023-05-08T21:23:18.001Z,12.01
2023-05-08T21:25:48.800Z,11.97
2023-05-08T21:28:16.703Z,11.90
2023-05-08T21:30:44.472Z,11.91
2023-05-08T21:33:14.120Z,11.90
2023-05-08T21:35:42.158Z,11.89
2023-05-08T21:38:11.842Z,11.88
2023-05-08T21:40:39.143Z,11.89
2023-05-08T21:43:06.063Z,11.90
2023-05-08T21:45:33.611Z,11.89
2023-05-08T21:48:00.788Z,11.88
2023-05-08T21:50:30.384Z,11.90
2023-05-08T21:52:57.241Z,11.94
2023-05-08T21:55:25.019Z,11.97
2023-05-08T21:57:52.074Z,11.98
2023-05-08T22:00:20.148Z,11.99
2023-05-08T22:02:47.389Z,11.96
2023-05-08T22:05:14.789Z,11.93
2023-05-08T22:07:41.961Z,11.92
2023-05-08T22:10:10.571Z,11.92
2023-05-08T22:12:37.671Z,11.92
2023-05-08T22:15:09.523Z,11.92
2023-05-08T22:17:45.357Z,11.92
2023-05-08T22:20:14.649Z,11.93
2023-05-08T22:22:41.865Z,11.93
2023-05-08T22:25:09.308Z,11.93
2023-05-08T22:27:36.461Z,11.96
2023-05-08T22:30:03.502Z,11.98
2023-05-08T22:32:30.675Z,11.98
2023-05-08T22:34:57.430Z,11.98
2023-05-08T22:37:26.190Z,12.01
2023-05-08T22:39:53.123Z,12.00
2023-05-08T22:42:20.036Z,11.98
2023-05-08T22:44:46.914Z,11.97
2023-05-08T22:47:14.330Z,11.97
2023-05-08T22:49:42.012Z,11.96
2023-05-08T22:52:09.390Z,11.98
2023-05-08T22:54:36.478Z,11.96
2023-05-08T22:57:03.380Z,11.94
2023-05-08T22:59:30.329Z,11.96
2023-05-08T23:01:57.277Z,11.96
2023-05-08T23:04:24.086Z,11.94
2023-05-08T23:06:51.414Z,11.93
2023-05-08T23:09:18.485Z,11.92
2023-05-08T23:11:45.763Z,11.92
2023-05-08T23:14:12.552Z,11.90
2023-05-08T23:16:39.626Z,11.91
2023-05-08T23:19:07.432Z,11.91
2023-05-08T23:21:34.466Z,11.91
2023-05-08T23:24:01.531Z,11.90
2023-05-08T23:26:28.771Z,11.91
2023-05-08T23:28:55.761Z,11.89
2023-05-08T23:31:22.697Z,11.89
2023-05-08T23:33:49.503Z,11.90
2023-05-08T23:36:16.857Z,11.88
2023-05-08T23:38:43.650Z,11.87
2023-05-08T23:41:11.469Z,11.86
2023-05-08T23:43:38.305Z,11.84
2023-05-08T23:46:06.549Z,11.82
2023-05-08T23:48:33.528Z,11.79
2023-05-08T23:51:00.432Z,11.77
2023-05-08T23:53:27.451Z,11.77
2023-05-08T23:55:54.352Z,11.79
2023-05-08T23:58:21.359Z,11.81
